Grayling, AK

9:41 PM AKST on November 23, 2014 (GMT -0900)
Anvik | Change Station
CLOSE
Current Station
Airport
Location: Anvik,
Elevation: 308 ft
Nearby Weather Stations

Elev 308 ft 62.65 °N, 160.19 °W | Updated 5 minutes ago

Overcast
Overcast
7 °F
Feels Like -9 °F
N
12
Wind Variable Wind from NNE
Gusts 16 mph

Today
High -- | Low -- °F
--% Chance of Precip.
Yesterday
High -- | Low -- °F
Precip. -- in
10:26 AM 4:26 PM
Waxing Crescent, 4% visible
Pressure 29.58 in
Visibility 10.0 miles
Clouds Overcast 11000 ft
Windchill -9 °F
Dew Point 0 °F
Humidity 72%
Rainfall 0.00 in
Snow Depth Not available.
UV 0 out of 12
Pollen Not available.
Air Quality Not available.
Flu Activity Not available.
METAR PANV 240636Z AUTO 03010G14KT 10SM OVC110 M14/M18 A2958 RMK AO1

More Conditions Fewer Conditions

Pressure 29.58 in
Visibility 10.0 miles
Clouds Overcast 11000 ft
Windchill -9 °F
Dew Point 0 °F
Humidity 72%
Rainfall 0.00 in
Snow Depth Not available.
UV 0 out of 12
Pollen Not available.
Air Quality Not available.
Flu Activity Not available.
METAR PANV 240636Z AUTO 03010G14KT 10SM OVC110 M14/M18 A2958 RMK AO1

More Conditions Fewer Conditions

10-Day Weather Forecast

Almanac

Astronomy

Nov. 23, 2014 Rise Set
Actual Time
Civil Twilight
Nautical Twilight
Astronomical Twilight
Moon
Length of Visible Light
Length of Day
Tomorrow will be .
, % of the Moon is Illuminated

Today's Extremes

State Highs State Lows

Community

WunderPhotos

Upload Photos

1,773,294 photos uploaded!

WunderBlogs® & News

Nearby

Air Quality

  Air Quality AQ Index Pollutant
Not available.

Snow Depth

Station Depth Elevation

Earthquake Activity

City Distance Mag. Time & Date
Minimum magnitude displayed is 2.5.

Coastal Water Temperatures

Place Temperature

Nearby Weather Stations